createdAt,value
2022-08-09T00:14:38.317Z,17.99
2022-08-09T00:30:10.049Z,18.01
2022-08-09T00:44:35.957Z,18.04
2022-08-09T00:59:41.168Z,17.91
2022-08-09T01:14:36.011Z,17.70
2022-08-09T01:29:55.228Z,17.46
2022-08-09T01:44:35.917Z,17.34
2022-08-09T01:59:50.913Z,17.44
2022-08-09T02:14:36.029Z,17.19
2022-08-09T02:29:36.321Z,16.98
2022-08-09T02:44:36.242Z,16.85
2022-08-09T02:59:36.892Z,16.65
2022-08-09T03:14:36.762Z,16.52
2022-08-09T03:29:57.197Z,16.51
2022-08-09T03:44:36.244Z,16.39
2022-08-09T03:59:53.777Z,16.21
2022-08-09T04:14:53.812Z,16.02
2022-08-09T04:29:36.358Z,15.98
2022-08-09T04:44:37.080Z,16.21
2022-08-09T04:59:36.417Z,16.40
2022-08-09T05:14:36.383Z,16.65
2022-08-09T05:29:39.044Z,17.01
2022-08-09T05:44:36.841Z,17.31
2022-08-09T05:59:38.335Z,17.85
2022-08-09T06:14:36.831Z,17.85
2022-08-09T06:29:47.700Z,18.56
2022-08-09T06:44:37.195Z,18.79
2022-08-09T07:00:52.508Z,19.48
2022-08-09T07:14:36.921Z,20.43
2022-08-09T07:29:37.924Z,20.82
2022-08-09T07:44:53.012Z,21.35
2022-08-09T07:59:52.266Z,22.21
2022-08-09T08:14:37.206Z,22.00
2022-08-09T08:29:39.179Z,22.33
2022-08-09T08:44:37.292Z,22.96
2022-08-09T08:59:46.597Z,23.60
2022-08-09T09:14:37.283Z,23.86
2022-08-09T09:30:08.359Z,24.69
2022-08-09T09:44:37.360Z,24.37
2022-08-09T09:59:37.368Z,24.84
2022-08-09T10:14:37.564Z,25.12
2022-08-09T10:30:43.864Z,24.95
2022-08-09T10:44:37.457Z,25.73
2022-08-09T10:59:55.457Z,25.76
2022-08-09T11:14:38.107Z,26.56
2022-08-09T11:30:05.725Z,26.31
2022-08-09T11:44:37.892Z,26.62
2022-08-09T11:59:38.050Z,27.08
2022-08-09T12:14:59.125Z,26.97
2022-08-09T12:29:43.993Z,26.98
2022-08-09T12:44:37.964Z,27.26
2022-08-09T12:59:57.721Z,27.10
2022-08-09T13:14:45.481Z,27.79
2022-08-09T13:30:02.728Z,27.92
2022-08-09T13:44:38.244Z,27.73
2022-08-09T13:59:41.986Z,28.45
2022-08-09T14:14:38.277Z,29.56
2022-08-09T14:30:35.287Z,28.85
2022-08-09T14:44:48.730Z,28.32
2022-08-09T14:59:38.619Z,28.87
2022-08-09T15:14:39.060Z,28.39
2022-08-09T15:30:58.916Z,28.42
2022-08-09T15:44:38.737Z,28.72
2022-08-09T15:59:38.584Z,28.83
2022-08-09T16:14:38.851Z,28.75
2022-08-09T16:29:50.016Z,28.55
2022-08-09T16:44:38.958Z,27.92
2022-08-09T16:59:38.669Z,28.00
2022-08-09T17:14:38.790Z,27.45
2022-08-09T17:29:41.058Z,27.22
2022-08-09T17:44:47.439Z,27.61
2022-08-09T17:59:39.001Z,27.04
2022-08-09T18:14:50.137Z,26.67
2022-08-09T18:30:34.531Z,26.39
2022-08-09T18:44:39.063Z,25.85
2022-08-09T18:59:51.440Z,25.31
2022-08-09T19:14:39.094Z,24.91
2022-08-09T19:30:20.805Z,24.45
2022-08-09T19:44:39.412Z,24.19
2022-08-09T19:59:58.018Z,23.90
2022-08-09T20:14:43.827Z,23.61
2022-08-09T20:29:39.588Z,23.44
2022-08-09T20:44:39.405Z,23.38
2022-08-09T21:00:19.280Z,23.38
2022-08-09T21:14:41.607Z,23.14
2022-08-09T21:29:49.112Z,22.91
2022-08-09T21:44:39.774Z,22.71
2022-08-09T21:59:43.026Z,22.49
2022-08-09T22:14:39.947Z,22.28
2022-08-09T22:29:47.679Z,22.09
2022-08-09T22:44:45.754Z,21.83
2022-08-09T22:59:58.161Z,21.66
2022-08-09T23:14:42.269Z,21.27
2022-08-09T23:29:39.910Z,20.99
2022-08-09T23:44:40.094Z,20.72
2022-08-09T23:59:40.273Z,20.47
